createdAt,value
2019-04-24T00:02:04.277Z,10.50
2019-04-24T00:04:45.456Z,10.30
2019-04-24T00:06:52.305Z,10.20
2019-04-24T00:09:18.343Z,10.00
2019-04-24T00:14:50.682Z,9.80
2019-04-24T00:22:14.835Z,9.60
2019-04-24T00:24:59.770Z,9.50
2019-04-24T00:29:48.886Z,9.40
2019-04-24T00:34:47.065Z,9.20
2019-04-24T00:42:20.125Z,9.20
2019-04-24T00:44:51.942Z,9.20
2019-04-24T00:49:46.070Z,9.10
2019-04-24T00:52:31.417Z,9.00
2019-04-24T00:54:47.267Z,8.90
2019-04-24T00:59:44.414Z,8.60
2019-04-24T01:02:24.632Z,8.60
2019-04-24T01:08:02.079Z,8.30
2019-04-24T01:15:28.453Z,8.20
2019-04-24T01:17:52.851Z,8.10
2019-04-24T01:20:41.544Z,8.30
2019-04-24T01:23:03.583Z,8.30
2019-04-24T01:25:49.824Z,8.20
2019-04-24T01:33:16.454Z,7.90
2019-04-24T01:35:53.632Z,7.90
2019-04-24T01:38:23.165Z,7.80
2019-04-24T01:40:56.222Z,7.70
2019-04-24T01:45:47.231Z,7.70
2019-04-24T01:48:25.054Z,7.70
2019-04-24T01:51:02.805Z,7.60
2019-04-24T01:55:43.207Z,7.50
2019-04-24T01:58:19.416Z,7.50
2019-04-24T02:01:04.902Z,7.50
2019-04-24T02:03:29.284Z,7.40
2019-04-24T02:06:05.063Z,7.30
2019-04-24T02:11:34.252Z,7.30
2019-04-24T02:13:32.732Z,7.30
2019-04-24T02:16:10.445Z,7.30
2019-04-24T02:18:44.941Z,7.30
2019-04-24T02:23:33.230Z,7.30
2019-04-24T02:28:37.331Z,7.10
2019-04-24T02:31:23.301Z,7.00
2019-04-24T02:39:38.266Z,7.30
2019-04-24T02:46:51.823Z,7.10
2019-04-24T02:51:52.573Z,6.80
2019-04-24T02:59:26.676Z,6.50
2019-04-24T03:02:07.377Z,6.40
2019-04-24T03:10:12.906Z,6.30
2019-04-24T03:12:55.339Z,6.40
2019-04-24T03:15:05.441Z,6.60
2019-04-24T03:17:31.248Z,6.50
2019-04-24T03:25:09.360Z,6.40
2019-04-24T03:30:34.542Z,6.20
2019-04-24T03:38:18.077Z,6.00
2019-04-24T03:45:44.573Z,5.70
2019-04-24T03:56:05.854Z,6.00
2019-04-24T03:58:37.806Z,5.90
2019-04-24T04:00:59.860Z,5.80
2019-04-24T04:03:43.065Z,5.90
2019-04-24T04:05:56.972Z,5.90
2019-04-24T04:11:06.423Z,6.30
2019-04-24T04:21:22.659Z,5.90
2019-04-24T04:34:33.504Z,5.50
2019-04-24T04:39:07.231Z,5.60
2019-04-24T04:41:54.413Z,5.70
2019-04-24T04:44:48.201Z,5.70
2019-04-24T04:59:50.128Z,6.00
2019-04-24T05:05:29.535Z,6.10
2019-04-24T05:07:51.890Z,6.30
2019-04-24T05:12:43.414Z,6.60
2019-04-24T05:19:51.216Z,6.90
2019-04-24T05:25:06.853Z,7.10
2019-04-24T05:27:39.893Z,7.20
2019-04-24T05:30:10.498Z,7.30
2019-04-24T05:37:56.776Z,7.50
2019-04-24T05:40:45.462Z,7.70
2019-04-24T05:43:04.603Z,7.70
2019-04-24T05:45:46.018Z,7.90
2019-04-24T05:48:05.315Z,8.00
2019-04-24T05:50:57.870Z,8.20
2019-04-24T05:56:06.901Z,8.60
2019-04-24T05:58:58.081Z,8.80
2019-04-24T06:01:49.013Z,9.00
2019-04-24T06:06:56.401Z,9.30
2019-04-24T06:09:37.087Z,9.40
2019-04-24T06:12:04.396Z,9.60
2019-04-24T06:14:45.345Z,9.70
2019-04-24T06:17:08.750Z,9.90
2019-04-24T06:19:44.753Z,10.10
2019-04-24T06:22:14.018Z,10.30
2019-04-24T06:29:51.164Z,11.00
2019-04-24T06:42:42.090Z,12.10
2019-04-24T06:50:17.378Z,12.70
2019-04-24T06:55:23.840Z,13.10
2019-04-24T06:57:27.578Z,13.30
2019-04-24T07:00:26.288Z,13.60
2019-04-24T07:02:49.668Z,13.80
2019-04-24T07:07:38.571Z,14.10
2019-04-24T07:11:01.804Z,14.20
2019-04-24T07:13:38.736Z,14.50
2019-04-24T07:18:26.334Z,14.80
2019-04-24T07:21:18.437Z,15.00
2019-04-24T07:23:46.809Z,15.30
2019-04-24T07:28:44.173Z,16.90
2019-04-24T07:33:49.301Z,20.80
2019-04-24T07:36:46.264Z,22.30
2019-04-24T07:38:40.769Z,23.70
2019-04-24T07:41:53.906Z,24.90
2019-04-24T07:44:05.826Z,25.20
2019-04-24T07:46:24.742Z,25.70
2019-04-24T07:49:02.355Z,27.80
2019-04-24T07:51:38.365Z,28.20
2019-04-24T07:57:01.349Z,28.40
2019-04-24T07:59:51.740Z,28.00
2019-04-24T08:02:23.595Z,27.30
2019-04-24T08:04:42.353Z,26.90
2019-04-24T08:10:01.512Z,27.80
2019-04-24T08:12:20.233Z,28.00
2019-04-24T08:15:03.408Z,29.70
2019-04-24T08:17:25.742Z,30.10
2019-04-24T08:22:13.869Z,29.60
2019-04-24T08:27:23.810Z,29.00
2019-04-24T08:29:47.256Z,29.80
2019-04-24T08:32:34.849Z,31.00
2019-04-24T08:37:38.792Z,31.50
2019-04-24T08:45:51.720Z,31.80
2019-04-24T08:48:40.023Z,32.80
2019-04-24T08:53:21.971Z,33.40
2019-04-24T08:55:56.279Z,34.00
2019-04-24T08:58:26.622Z,33.90
2019-04-24T09:01:06.421Z,34.30
2019-04-24T09:03:58.588Z,33.60
2019-04-24T09:06:36.866Z,34.30
2019-04-24T09:09:23.567Z,34.10
2019-04-24T09:11:40.187Z,33.50
2019-04-24T09:19:06.843Z,31.50
2019-04-24T09:24:37.626Z,33.40
2019-04-24T09:29:50.942Z,32.50
2019-04-24T09:34:28.514Z,33.90
2019-04-24T09:37:15.876Z,33.60
2019-04-24T09:40:21.274Z,33.90
2019-04-24T09:44:58.070Z,34.00
2019-04-24T09:47:48.221Z,34.90
2019-04-24T09:50:01.166Z,34.20
2019-04-24T09:52:29.161Z,34.30
2019-04-24T09:55:03.635Z,34.10
2019-04-24T09:57:30.433Z,33.80
2019-04-24T09:59:47.453Z,32.30
2019-04-24T10:02:48.930Z,30.80
2019-04-24T10:05:45.684Z,30.60
2019-04-24T10:08:07.564Z,31.40
2019-04-24T10:10:38.283Z,32.10
2019-04-24T10:13:23.524Z,32.70
2019-04-24T10:15:45.406Z,33.90
2019-04-24T10:18:39.820Z,31.90
2019-04-24T10:20:30.633Z,32.20
2019-04-24T10:23:05.856Z,33.30
2019-04-24T10:25:42.178Z,35.10
2019-04-24T10:29:06.666Z,34.90
2019-04-24T10:31:11.321Z,34.60
2019-04-24T10:33:55.391Z,33.90
2019-04-24T10:36:21.365Z,32.90
2019-04-24T10:38:51.155Z,33.30
2019-04-24T10:41:34.064Z,33.40
2019-04-24T10:44:08.994Z,34.50
2019-04-24T10:47:09.808Z,35.20
2019-04-24T10:49:44.393Z,34.80
2019-04-24T10:54:38.291Z,34.10
2019-04-24T10:57:08.197Z,32.20
2019-04-24T10:59:45.472Z,32.50
2019-04-24T11:02:31.294Z,33.00
2019-04-24T11:07:35.805Z,33.80
2019-04-24T11:10:28.687Z,34.30
2019-04-24T11:13:02.382Z,34.10
2019-04-24T11:15:36.478Z,32.80
2019-04-24T11:17:55.728Z,32.70
2019-04-24T11:20:25.807Z,33.80
2019-04-24T11:23:15.165Z,35.00
2019-04-24T11:26:10.529Z,34.80
2019-04-24T11:28:33.091Z,35.00
2019-04-24T11:30:54.862Z,34.60
2019-04-24T11:36:12.304Z,32.80
2019-04-24T11:44:11.173Z,33.10
2019-04-24T11:51:56.927Z,33.30
2019-04-24T11:54:13.031Z,33.40
2019-04-24T11:56:59.721Z,32.10
2019-04-24T11:58:55.909Z,30.90
2019-04-24T12:01:55.598Z,30.50
2019-04-24T12:06:56.011Z,30.90
2019-04-24T12:09:15.777Z,30.90
2019-04-24T12:11:56.622Z,30.10
2019-04-24T12:14:29.713Z,30.70
2019-04-24T12:16:53.228Z,31.10
2019-04-24T12:22:23.539Z,29.80
2019-04-24T12:24:50.035Z,30.10
2019-04-24T12:27:34.302Z,30.20
2019-04-24T12:29:48.672Z,30.70
2019-04-24T12:32:32.585Z,30.50
2019-04-24T12:35:17.716Z,30.30
2019-04-24T12:37:29.504Z,30.40
2019-04-24T12:40:07.211Z,30.10
2019-04-24T12:42:42.251Z,29.60
2019-04-24T12:44:52.826Z,30.00
2019-04-24T12:47:37.240Z,29.50
2019-04-24T12:50:05.186Z,29.80
2019-04-24T12:52:35.959Z,29.20
2019-04-24T13:00:36.132Z,29.00
2019-04-24T13:03:00.715Z,29.20
2019-04-24T13:05:37.293Z,29.30
2019-04-24T13:08:50.930Z,29.50
2019-04-24T13:10:47.746Z,29.80
2019-04-24T13:13:12.997Z,29.40
2019-04-24T13:15:46.708Z,29.10
2019-04-24T13:18:25.067Z,29.00
2019-04-24T13:20:23.081Z,29.10
2019-04-24T13:22:57.111Z,29.10
2019-04-24T13:25:49.853Z,29.70
2019-04-24T13:28:33.984Z,29.90
2019-04-24T13:33:37.494Z,29.40
2019-04-24T13:36:14.612Z,29.30
2019-04-24T13:38:39.801Z,28.70
2019-04-24T13:40:58.027Z,28.30
2019-04-24T13:43:51.138Z,28.50
2019-04-24T13:48:43.696Z,28.70
2019-04-24T13:51:02.155Z,28.30
2019-04-24T13:53:47.350Z,28.10
2019-04-24T13:55:58.299Z,27.80
2019-04-24T14:01:31.128Z,26.90
2019-04-24T14:04:05.857Z,26.90
2019-04-24T14:06:27.617Z,26.90
2019-04-24T14:11:40.324Z,27.10
2019-04-24T14:13:57.778Z,27.40
2019-04-24T14:16:14.437Z,27.60
2019-04-24T14:19:02.430Z,27.60
2019-04-24T14:21:24.802Z,27.30
2019-04-24T14:26:34.738Z,27.50
2019-04-24T14:29:07.738Z,27.40
2019-04-24T14:36:33.169Z,27.00
2019-04-24T14:41:33.572Z,27.40
2019-04-24T14:46:51.096Z,27.70
2019-04-24T14:49:25.060Z,27.70
2019-04-24T14:51:52.577Z,27.70
2019-04-24T14:56:48.997Z,27.80
2019-04-24T14:59:27.495Z,28.10
2019-04-24T15:01:56.110Z,28.00
2019-04-24T15:04:15.171Z,28.00
2019-04-24T15:06:49.772Z,27.90
2019-04-24T15:12:01.201Z,28.00
2019-04-24T15:14:23.073Z,27.40
2019-04-24T15:17:08.359Z,27.40
2019-04-24T15:19:51.229Z,27.60
2019-04-24T15:22:20.163Z,27.50
2019-04-24T15:24:45.444Z,27.60
2019-04-24T15:32:03.348Z,27.00
2019-04-24T15:34:37.148Z,27.00
2019-04-24T15:37:02.901Z,27.00
2019-04-24T15:42:01.916Z,26.90
2019-04-24T15:44:33.057Z,26.90
2019-04-24T15:49:36.291Z,26.90
2019-04-24T15:51:35.180Z,26.80
2019-04-24T15:54:01.633Z,26.70
2019-04-24T15:56:30.099Z,26.60
2019-04-24T15:59:13.622Z,26.60
2019-04-24T16:02:07.528Z,26.70
2019-04-24T16:06:33.755Z,26.70
2019-04-24T16:09:03.813Z,26.60
2019-04-24T16:11:32.218Z,26.80
2019-04-24T16:14:08.750Z,26.80
2019-04-24T16:17:03.331Z,26.90
2019-04-24T16:22:05.814Z,26.80
2019-04-24T16:29:25.624Z,26.60
2019-04-24T16:37:07.791Z,26.00
2019-04-24T16:39:21.487Z,25.80
2019-04-24T16:42:25.151Z,25.80
2019-04-24T16:44:44.337Z,25.70
2019-04-24T16:46:54.391Z,25.60
2019-04-24T16:49:53.606Z,25.60
2019-04-24T16:52:08.984Z,25.60
2019-04-24T16:54:29.678Z,25.60
2019-04-24T16:57:01.206Z,25.50
2019-04-24T16:59:21.917Z,25.50
2019-04-24T17:04:53.735Z,25.40
2019-04-24T17:07:14.163Z,25.40
2019-04-24T17:09:47.891Z,25.40
2019-04-24T17:12:15.845Z,25.30
2019-04-24T17:14:45.252Z,25.20
2019-04-24T17:19:53.151Z,25.10
2019-04-24T17:22:24.625Z,25.00
2019-04-24T17:24:53.424Z,24.90
2019-04-24T17:29:58.873Z,24.70
2019-04-24T17:36:52.975Z,24.50
2019-04-24T17:39:28.759Z,24.40
2019-04-24T17:42:01.926Z,24.30
2019-04-24T17:44:57.916Z,24.20
2019-04-24T17:50:10.791Z,23.90
2019-04-24T17:52:38.489Z,23.80
2019-04-24T17:54:52.419Z,23.70
2019-04-24T17:59:28.233Z,23.40
2019-04-24T18:01:57.710Z,23.30
2019-04-24T18:04:26.170Z,23.10
2019-04-24T18:06:54.589Z,23.00
2019-04-24T18:09:23.441Z,22.90
2019-04-24T18:11:52.392Z,22.80
2019-04-24T18:14:56.962Z,22.60
2019-04-24T18:17:25.445Z,22.50
2019-04-24T18:19:53.858Z,22.40
2019-04-24T18:22:22.619Z,22.20
2019-04-24T18:24:52.793Z,22.10
2019-04-24T18:27:22.925Z,21.90
2019-04-24T18:29:53.126Z,21.80
2019-04-24T18:32:23.107Z,21.70
2019-04-24T18:34:52.082Z,21.40
2019-04-24T18:37:20.722Z,21.60
2019-04-24T18:39:49.142Z,21.50
2019-04-24T18:42:17.557Z,21.40
2019-04-24T18:44:46.142Z,21.50
2019-04-24T18:47:15.024Z,21.50
2019-04-24T18:49:43.558Z,21.50
2019-04-24T18:52:12.880Z,21.40
2019-04-24T18:54:43.387Z,21.50
2019-04-24T18:57:12.863Z,21.70
2019-04-24T18:59:43.070Z,21.70
2019-04-24T19:02:12.870Z,21.00
2019-04-24T19:04:41.482Z,20.50
2019-04-24T19:07:10.881Z,19.90
2019-04-24T19:09:39.510Z,19.60
2019-04-24T19:12:08.896Z,19.10
2019-04-24T19:14:37.576Z,18.60
2019-04-24T19:17:06.070Z,18.30
2019-04-24T19:19:34.490Z,17.90
2019-04-24T19:22:04.039Z,17.70
2019-04-24T19:24:33.242Z,17.40
2019-04-24T19:27:01.831Z,17.10
2019-04-24T19:29:30.302Z,16.80
2019-04-24T19:31:58.814Z,16.60
2019-04-24T19:34:27.298Z,16.40
2019-04-24T19:36:55.710Z,16.30
2019-04-24T19:39:24.151Z,16.20
2019-04-24T19:41:52.688Z,16.00
2019-04-24T19:44:21.314Z,15.90
2019-04-24T19:46:49.763Z,15.70
2019-04-24T19:49:18.511Z,15.60
2019-04-24T19:51:47.065Z,15.50
2019-04-24T19:54:15.974Z,15.40
2019-04-24T19:56:44.454Z,15.30
2019-04-24T19:59:12.867Z,15.10
2019-04-24T20:01:42.249Z,14.90
2019-04-24T20:04:12.496Z,14.70
2019-04-24T20:06:41.324Z,14.70
2019-04-24T20:09:28.298Z,14.50
2019-04-24T20:11:58.273Z,14.40
2019-04-24T20:14:26.942Z,14.40
2019-04-24T20:16:55.351Z,14.20
2019-04-24T20:19:23.877Z,14.10
2019-04-24T20:21:52.351Z,14.10
2019-04-24T20:24:21.405Z,14.00
2019-04-24T20:26:50.055Z,13.90
2019-04-24T20:29:18.478Z,13.90
2019-04-24T20:31:46.908Z,13.80
2019-04-24T20:34:16.218Z,13.80
2019-04-24T20:36:44.885Z,13.80
2019-04-24T20:39:13.304Z,13.80
2019-04-24T20:41:41.717Z,13.80
2019-04-24T20:44:11.496Z,13.80
2019-04-24T20:46:40.005Z,13.80
2019-04-24T20:49:08.415Z,13.80
2019-04-24T20:51:36.827Z,13.80
2019-04-24T20:54:05.310Z,13.70
2019-04-24T20:56:33.713Z,13.80
2019-04-24T20:59:03.923Z,13.70
2019-04-24T21:01:32.350Z,13.60
2019-04-24T21:04:02.031Z,13.60
2019-04-24T21:06:32.647Z,13.70
2019-04-24T21:09:17.460Z,13.70
2019-04-24T21:11:39.017Z,13.70
2019-04-24T21:14:07.448Z,13.70
2019-04-24T21:16:36.223Z,13.60
2019-04-24T21:19:04.625Z,13.50
2019-04-24T21:21:33.038Z,13.50
2019-04-24T21:24:02.265Z,13.40
2019-04-24T21:26:31.722Z,13.40
2019-04-24T21:29:01.774Z,13.40
2019-04-24T21:31:30.410Z,13.20
2019-04-24T21:33:58.817Z,13.20
2019-04-24T21:36:27.775Z,13.10
2019-04-24T21:38:56.210Z,13.00
2019-04-24T21:41:25.114Z,12.80
2019-04-24T21:43:53.698Z,12.80
2019-04-24T21:46:22.359Z,12.70
2019-04-24T21:48:51.684Z,12.60
2019-04-24T21:51:20.371Z,12.50
2019-04-24T21:53:48.869Z,12.40
2019-04-24T21:56:17.284Z,12.20
2019-04-24T21:58:45.685Z,12.20
2019-04-24T22:01:16.412Z,12.10
2019-04-24T22:03:46.798Z,12.10
2019-04-24T22:06:29.985Z,11.90
2019-04-24T22:08:58.549Z,11.80
2019-04-24T22:11:28.448Z,11.70
2019-04-24T22:13:57.052Z,11.70
2019-04-24T22:16:25.459Z,11.60
2019-04-24T22:18:54.638Z,11.50
2019-04-24T22:21:27.327Z,11.40
2019-04-24T22:23:57.729Z,11.30
2019-04-24T22:26:28.050Z,11.30
2019-04-24T22:28:56.521Z,11.30
2019-04-24T22:31:27.122Z,11.20
2019-04-24T22:34:13.635Z,11.20
2019-04-24T22:36:42.117Z,11.30
2019-04-24T22:39:18.405Z,11.30
2019-04-24T22:41:47.154Z,11.40
2019-04-24T22:44:15.562Z,11.40
2019-04-24T22:46:43.963Z,11.60
2019-04-24T22:49:12.370Z,11.70
2019-04-24T22:51:42.003Z,11.80
2019-04-24T22:54:10.557Z,11.60
2019-04-24T22:56:45.470Z,11.50
2019-04-24T22:59:09.098Z,11.50
2019-04-24T23:01:50.018Z,11.40
2019-04-24T23:04:07.809Z,11.30
2019-04-24T23:06:36.449Z,11.30
2019-04-24T23:09:09.209Z,11.40
2019-04-24T23:11:37.778Z,11.50
2019-04-24T23:14:06.186Z,11.50
2019-04-24T23:16:35.120Z,11.40
2019-04-24T23:19:04.423Z,11.30
2019-04-24T23:21:38.039Z,11.30
2019-04-24T23:24:12.048Z,11.30
2019-04-24T23:26:57.191Z,11.20
2019-04-24T23:29:27.242Z,11.00
2019-04-24T23:32:06.175Z,10.90
2019-04-24T23:34:36.224Z,10.90
2019-04-24T23:37:05.974Z,10.70
2019-04-24T23:39:34.585Z,10.60
2019-04-24T23:42:03.143Z,10.50
2019-04-24T23:44:32.203Z,10.30
2019-04-24T23:47:01.621Z,10.10
2019-04-24T23:49:30.128Z,10.00
2019-04-24T23:51:58.526Z,9.90
2019-04-24T23:54:26.938Z,9.80
2019-04-24T23:56:55.335Z,9.60
2019-04-24T23:59:23.738Z,9.50
